sensor_id;sensor_type;location;lat;lon;timestamp;pressure;altitude;pressure_sealevel;temperature;humidity
43878;BME280;29815;48.184;11.268;2023-06-26T00:00:30;95651.00;;;13.92;100.00
43878;BME280;29815;48.184;11.268;2023-06-26T00:03:02;95646.47;;;13.87;100.00
43878;BME280;29815;48.184;11.268;2023-06-26T00:05:32;95645.94;;;13.85;100.00
43878;BME280;29815;48.184;11.268;2023-06-26T00:08:04;95646.22;;;13.84;100.00
43878;BME280;29815;48.184;11.268;2023-06-26T00:10:34;95643.56;;;13.79;100.00
43878;BME280;29815;48.184;11.268;2023-06-26T00:13:04;95653.06;;;13.76;100.00
43878;BME280;29815;48.184;11.268;2023-06-26T00:15:34;95646.31;;;13.74;100.00
43878;BME280;29815;48.184;11.268;2023-06-26T00:18:05;95650.41;;;13.71;100.00
43878;BME280;29815;48.184;11.268;2023-06-26T00:20:35;95645.06;;;13.66;100.00
43878;BME280;29815;48.184;11.268;2023-06-26T00:23:05;95644.84;;;13.63;100.00
43878;BME280;29815;48.184;11.268;2023-06-26T00:25:35;95651.09;;;13.58;100.00
43878;BME280;29815;48.184;11.268;2023-06-26T00:28:05;95644.66;;;13.54;100.00
43878;BME280;29815;48.184;11.268;2023-06-26T00:30:35;95645.22;;;13.51;100.00
43878;BME280;29815;48.184;11.268;2023-06-26T00:33:06;95654.69;;;13.48;100.00
43878;BME280;29815;48.184;11.268;2023-06-26T00:35:35;95654.47;;;13.45;100.00
43878;BME280;29815;48.184;11.268;2023-06-26T00:38:05;95656.63;;;13.43;100.00
43878;BME280;29815;48.184;11.268;2023-06-26T00:40:35;95651.50;;;13.41;100.00
43878;BME280;29815;48.184;11.268;2023-06-26T00:43:05;95652.59;;;13.40;100.00
43878;BME280;29815;48.184;11.268;2023-06-26T00:45:35;95645.91;;;13.38;100.00
43878;BME280;29815;48.184;11.268;2023-06-26T00:48:12;95645.09;;;13.37;100.00
43878;BME280;29815;48.184;11.268;2023-06-26T00:50:42;95645.66;;;13.34;100.00
43878;BME280;29815;48.184;11.268;2023-06-26T00:53:12;95638.91;;;13.32;100.00
43878;BME280;29815;48.184;11.268;2023-06-26T00:55:42;95645.97;;;13.28;100.00
43878;BME280;29815;48.184;11.268;2023-06-26T00:58:11;95641.13;;;13.25;100.00
43878;BME280;29815;48.184;11.268;2023-06-26T01:00:41;95650.63;;;13.22;100.00
43878;BME280;29815;48.184;11.268;2023-06-26T01:03:15;95652.28;;;13.18;100.00
43878;BME280;29815;48.184;11.268;2023-06-26T01:05:45;95643.09;;;13.14;100.00
43878;BME280;29815;48.184;11.268;2023-06-26T01:08:19;95646.88;;;13.13;100.00
43878;BME280;29815;48.184;11.268;2023-06-26T01:10:49;95643.41;;;13.12;100.00
43878;BME280;29815;48.184;11.268;2023-06-26T01:13:19;95642.59;;;13.12;100.00
43878;BME280;29815;48.184;11.268;2023-06-26T01:15:48;95643.69;;;13.11;100.00
43878;BME280;29815;48.184;11.268;2023-06-26T01:18:22;95643.97;;;13.09;100.00
43878;BME280;29815;48.184;11.268;2023-06-26T01:20:52;95639.66;;;13.08;100.00
43878;BME280;29815;48.184;11.268;2023-06-26T01:23:31;95646.41;;;13.06;100.00
43878;BME280;29815;48.184;11.268;2023-06-26T01:26:18;95638.88;;;13.03;100.00
43878;BME280;29815;48.184;11.268;2023-06-26T01:28:50;95643.75;;;13.01;100.00
43878;BME280;29815;48.184;11.268;2023-06-26T01:32:13;95640.81;;;12.97;100.00
43878;BME280;29815;48.184;11.268;2023-06-26T01:34:44;95633.78;;;12.96;100.00
43878;BME280;29815;48.184;11.268;2023-06-26T01:37:13;95630.56;;;12.94;100.00
43878;BME280;29815;48.184;11.268;2023-06-26T01:39:43;95624.34;;;12.94;100.00
43878;BME280;29815;48.184;11.268;2023-06-26T01:42:14;95626.53;;;12.92;100.00
43878;BME280;29815;48.184;11.268;2023-06-26T01:44:45;95634.09;;;12.89;100.00
43878;BME280;29815;48.184;11.268;2023-06-26T01:47:20;95625.47;;;12.87;100.00
43878;BME280;29815;48.184;11.268;2023-06-26T01:49:58;95617.97;;;12.84;100.00
43878;BME280;29815;48.184;11.268;2023-06-26T01:52:39;95629.84;;;12.83;100.00
43878;BME280;29815;48.184;11.268;2023-06-26T01:55:17;95633.63;;;12.82;100.00
43878;BME280;29815;48.184;11.268;2023-06-26T01:57:56;95630.94;;;12.82;100.00
43878;BME280;29815;48.184;11.268;2023-06-26T02:00:27;95620.41;;;12.81;100.00
43878;BME280;29815;48.184;11.268;2023-06-26T02:02:57;95616.09;;;12.80;100.00
43878;BME280;29815;48.184;11.268;2023-06-26T02:05:27;95619.88;;;12.79;100.00
43878;BME280;29815;48.184;11.268;2023-06-26T02:08:00;95619.38;;;12.77;100.00
43878;BME280;29815;48.184;11.268;2023-06-26T02:10:31;95626.13;;;12.74;100.00
43878;BME280;29815;48.184;11.268;2023-06-26T02:13:02;95624.78;;;12.72;100.00
43878;BME280;29815;48.184;11.268;2023-06-26T02:15:32;95622.38;;;12.70;100.00
43878;BME280;29815;48.184;11.268;2023-06-26T02:18:01;95625.06;;;12.70;100.00
43878;BME280;29815;48.184;11.268;2023-06-26T02:20:31;95623.47;;;12.69;100.00
43878;BME280;29815;48.184;11.268;2023-06-26T02:23:01;95624.25;;;12.70;100.00
43878;BME280;29815;48.184;11.268;2023-06-26T02:25:31;95627.78;;;12.70;100.00
43878;BME280;29815;48.184;11.268;2023-06-26T02:28:02;95630.75;;;12.69;100.00
43878;BME280;29815;48.184;11.268;2023-06-26T02:30:31;95632.38;;;12.70;100.00
43878;BME280;29815;48.184;11.268;2023-06-26T02:33:01;95634.22;;;12.74;100.00
43878;BME280;29815;48.184;11.268;2023-06-26T02:35:31;95632.34;;;12.75;100.00
43878;BME280;29815;48.184;11.268;2023-06-26T02:38:01;95630.44;;;12.75;100.00
43878;BME280;29815;48.184;11.268;2023-06-26T02:40:31;95633.94;;;12.76;100.00
43878;BME280;29815;48.184;11.268;2023-06-26T02:43:03;95629.09;;;12.73;100.00
43878;BME280;29815;48.184;11.268;2023-06-26T02:45:33;95632.38;;;12.70;100.00
43878;BME280;29815;48.184;11.268;2023-06-26T02:48:03;95625.09;;;12.65;100.00
43878;BME280;29815;48.184;11.268;2023-06-26T02:50:34;95632.16;;;12.61;100.00
43878;BME280;29815;48.184;11.268;2023-06-26T02:53:10;95632.44;;;12.60;100.00
43878;BME280;29815;48.184;11.268;2023-06-26T02:55:42;95641.13;;;12.57;100.00
43878;BME280;29815;48.184;11.268;2023-06-26T02:58:13;95640.59;;;12.54;100.00
43878;BME280;29815;48.184;11.268;2023-06-26T03:00:44;95635.22;;;12.49;100.00
43878;BME280;29815;48.184;11.268;2023-06-26T03:03:17;95643.59;;;12.48;100.00
43878;BME280;29815;48.184;11.268;2023-06-26T03:05:47;95639.56;;;12.45;100.00
43878;BME280;29815;48.184;11.268;2023-06-26T03:08:17;95639.31;;;12.42;100.00
43878;BME280;29815;48.184;11.268;2023-06-26T03:10:47;95635.25;;;12.39;100.00
43878;BME280;29815;48.184;11.268;2023-06-26T03:13:18;95638.25;;;12.38;100.00
43878;BME280;29815;48.184;11.268;2023-06-26T03:15:47;95636.63;;;12.37;100.00
43878;BME280;29815;48.184;11.268;2023-06-26T03:18:17;95632.31;;;12.36;100.00
43878;BME280;29815;48.184;11.268;2023-06-26T03:20:47;95637.97;;;12.34;100.00
43878;BME280;29815;48.184;11.268;2023-06-26T03:23:16;95633.66;;;12.33;100.00
43878;BME280;29815;48.184;11.268;2023-06-26T03:25:48;95635.56;;;12.33;100.00
43878;BME280;29815;48.184;11.268;2023-06-26T03:28:33;95631.78;;;12.34;100.00
43878;BME280;29815;48.184;11.268;2023-06-26T03:31:03;95635.28;;;12.34;100.00
43878;BME280;29815;48.184;11.268;2023-06-26T03:33:33;95631.50;;;12.35;100.00
43878;BME280;29815;48.184;11.268;2023-06-26T03:36:03;95632.03;;;12.37;100.00
43878;BME280;29815;48.184;11.268;2023-06-26T03:38:35;95626.34;;;12.39;100.00
43878;BME280;29815;48.184;11.268;2023-06-26T03:41:05;95633.66;;;12.38;100.00
43878;BME280;29815;48.184;11.268;2023-06-26T03:43:35;95640.38;;;12.41;100.00
43878;BME280;29815;48.184;11.268;2023-06-26T03:46:21;95635.22;;;12.44;100.00
43878;BME280;29815;48.184;11.268;2023-06-26T03:48:51;95622.53;;;12.50;100.00
43878;BME280;29815;48.184;11.268;2023-06-26T03:51:21;95632.75;;;12.53;100.00
43878;BME280;29815;48.184;11.268;2023-06-26T03:53:50;95629.22;;;12.58;100.00
43878;BME280;29815;48.184;11.268;2023-06-26T03:56:21;95621.34;;;12.61;100.00
43878;BME280;29815;48.184;11.268;2023-06-26T03:58:52;95629.41;;;12.66;100.00
43878;BME280;29815;48.184;11.268;2023-06-26T04:01:21;95629.66;;;12.70;100.00
43878;BME280;29815;48.184;11.268;2023-06-26T04:03:51;95629.91;;;12.73;100.00
43878;BME280;29815;48.184;11.268;2023-06-26T04:06:21;95626.66;;;12.76;100.00
43878;BME280;29815;48.184;11.268;2023-06-26T04:08:50;95621.22;;;12.81;100.00
43878;BME280;29815;48.184;11.268;2023-06-26T04:11:20;95626.56;;;12.86;100.00
43878;BME280;29815;48.184;11.268;2023-06-26T04:13:49;95633.00;;;12.91;100.00
43878;BME280;29815;48.184;11.268;2023-06-26T04:16:21;95627.56;;;12.96;100.00
43878;BME280;29815;48.184;11.268;2023-06-26T04:18:53;95632.09;;;13.05;100.00
43878;BME280;29815;48.184;11.268;2023-06-26T04:21:24;95629.88;;;13.12;100.00
43878;BME280;29815;48.184;11.268;2023-06-26T04:23:54;95630.66;;;13.18;100.00
43878;BME280;29815;48.184;11.268;2023-06-26T04:26:23;95634.66;;;13.26;100.00
43878;BME280;29815;48.184;11.268;2023-06-26T04:28:53;95633.22;;;13.33;100.00
43878;BME280;29815;48.184;11.268;2023-06-26T04:31:24;95635.00;;;13.43;100.00
43878;BME280;29815;48.184;11.268;2023-06-26T04:33:53;95634.63;;;13.54;100.00
43878;BME280;29815;48.184;11.268;2023-06-26T04:36:23;95645.34;;;13.65;100.00
43878;BME280;29815;48.184;11.268;2023-06-26T04:38:56;95636.59;;;13.73;100.00
43878;BME280;29815;48.184;11.268;2023-06-26T04:41:26;95639.19;;;13.83;100.00
43878;BME280;29815;48.184;11.268;2023-06-26T04:43:56;95637.47;;;13.92;100.00
43878;BME280;29815;48.184;11.268;2023-06-26T04:46:27;95635.44;;;14.03;100.00
43878;BME280;29815;48.184;11.268;2023-06-26T04:48:57;95633.94;;;14.15;100.00
43878;BME280;29815;48.184;11.268;2023-06-26T04:51:26;95641.63;;;14.27;100.00
43878;BME280;29815;48.184;11.268;2023-06-26T04:53:57;95636.06;;;14.42;100.00
43878;BME280;29815;48.184;11.268;2023-06-26T04:56:26;95636.13;;;14.56;100.00
43878;BME280;29815;48.184;11.268;2023-06-26T04:58:56;95631.66;;;14.65;100.00
43878;BME280;29815;48.184;11.268;2023-06-26T05:01:27;95635.34;;;14.74;100.00
43878;BME280;29815;48.184;11.268;2023-06-26T05:03:57;95644.59;;;14.87;100.00
43878;BME280;29815;48.184;11.268;2023-06-26T05:06:27;95632.53;;;14.98;100.00
43878;BME280;29815;48.184;11.268;2023-06-26T05:08:57;95633.06;;;15.14;100.00
43878;BME280;29815;48.184;11.268;2023-06-26T05:11:26;95638.13;;;15.34;100.00
43878;BME280;29815;48.184;11.268;2023-06-26T05:13:56;95631.88;;;15.52;100.00
43878;BME280;29815;48.184;11.268;2023-06-26T05:16:27;95632.41;;;15.68;100.00
43878;BME280;29815;48.184;11.268;2023-06-26T05:18:56;95633.44;;;15.86;100.00
43878;BME280;29815;48.184;11.268;2023-06-26T05:21:27;95640.34;;;16.19;100.00
43878;BME280;29815;48.184;11.268;2023-06-26T05:23:57;95630.97;;;16.53;100.00
43878;BME280;29815;48.184;11.268;2023-06-26T05:26:28;95637.75;;;16.78;100.00
43878;BME280;29815;48.184;11.268;2023-06-26T05:28:59;95633.91;;;16.92;100.00
43878;BME280;29815;48.184;11.268;2023-06-26T05:31:32;95634.53;;;17.12;100.00
43878;BME280;29815;48.184;11.268;2023-06-26T05:34:05;95631.22;;;17.23;100.00
43878;BME280;29815;48.184;11.268;2023-06-26T05:36:36;95622.81;;;17.34;100.00
43878;BME280;29815;48.184;11.268;2023-06-26T05:39:06;95635.25;;;17.48;100.00
43878;BME280;29815;48.184;11.268;2023-06-26T05:41:37;95633.84;;;17.59;100.00
43878;BME280;29815;48.184;11.268;2023-06-26T05:44:07;95625.97;;;17.72;100.00
43878;BME280;29815;48.184;11.268;2023-06-26T05:46:38;95632.28;;;17.89;100.00
43878;BME280;29815;48.184;11.268;2023-06-26T05:49:07;95629.16;;;18.05;100.00
43878;BME280;29815;48.184;11.268;2023-06-26T05:51:40;95624.53;;;18.22;100.00
43878;BME280;29815;48.184;11.268;2023-06-26T05:54:11;95630.03;;;18.31;100.00
43878;BME280;29815;48.184;11.268;2023-06-26T05:56:42;95634.03;;;18.42;100.00
43878;BME280;29815;48.184;11.268;2023-06-26T05:59:12;95635.22;;;18.58;100.00
43878;BME280;29815;48.184;11.268;2023-06-26T06:01:45;95632.84;;;18.74;100.00
43878;BME280;29815;48.184;11.268;2023-06-26T06:04:15;95633.97;;;18.82;100.00
43878;BME280;29815;48.184;11.268;2023-06-26T06:06:44;95627.88;;;18.93;100.00
43878;BME280;29815;48.184;11.268;2023-06-26T06:09:14;95628.19;;;19.01;100.00
43878;BME280;29815;48.184;11.268;2023-06-26T06:11:43;95629.97;;;19.14;100.00
43878;BME280;29815;48.184;11.268;2023-06-26T06:14:13;95631.88;;;19.31;100.00
43878;BME280;29815;48.184;11.268;2023-06-26T06:16:43;95628.63;;;19.46;100.00
43878;BME280;29815;48.184;11.268;2023-06-26T06:19:14;95633.94;;;19.59;100.00
43878;BME280;29815;48.184;11.268;2023-06-26T06:21:43;95633.22;;;19.80;100.00
43878;BME280;29815;48.184;11.268;2023-06-26T06:24:13;95632.22;;;19.93;100.00
43878;BME280;29815;48.184;11.268;2023-06-26T06:26:43;95627.84;;;20.01;100.00
43878;BME280;29815;48.184;11.268;2023-06-26T06:29:13;95629.91;;;20.12;100.00
43878;BME280;29815;48.184;11.268;2023-06-26T06:31:42;95633.06;;;20.23;100.00
43878;BME280;29815;48.184;11.268;2023-06-26T06:34:14;95636.69;;;20.36;100.00
43878;BME280;29815;48.184;11.268;2023-06-26T06:36:44;95633.28;;;20.47;100.00
43878;BME280;29815;48.184;11.268;2023-06-26T06:39:13;95627.41;;;20.57;100.00
43878;BME280;29815;48.184;11.268;2023-06-26T06:41:43;95630.25;;;20.70;100.00
43878;BME280;29815;48.184;11.268;2023-06-26T06:44:13;95625.59;;;20.91;100.00
43878;BME280;29815;48.184;11.268;2023-06-26T06:46:42;95623.44;;;21.17;98.09
43878;BME280;29815;48.184;11.268;2023-06-26T06:49:13;95634.47;;;21.30;100.00
43878;BME280;29815;48.184;11.268;2023-06-26T06:51:42;95623.34;;;21.47;91.59
43878;BME280;29815;48.184;11.268;2023-06-26T06:54:12;95628.41;;;21.57;92.97
43878;BME280;29815;48.184;11.268;2023-06-26T06:56:42;95627.97;;;21.67;97.03
43878;BME280;29815;48.184;11.268;2023-06-26T06:59:11;95625.28;;;21.79;96.21
43878;BME280;29815;48.184;11.268;2023-06-26T07:01:41;95626.06;;;21.92;95.81
43878;BME280;29815;48.184;11.268;2023-06-26T07:04:10;95629.81;;;22.08;91.46
43878;BME280;29815;48.184;11.268;2023-06-26T07:06:42;95633.69;;;22.19;93.08
43878;BME280;29815;48.184;11.268;2023-06-26T07:09:12;95626.50;;;22.39;89.09
43878;BME280;29815;48.184;11.268;2023-06-26T07:11:42;95612.75;;;22.51;90.46
43878;BME280;29815;48.184;11.268;2023-06-26T07:14:12;95622.38;;;22.70;83.78
43878;BME280;29815;48.184;11.268;2023-06-26T07:16:42;95617.66;;;22.82;86.91
43878;BME280;29815;48.184;11.268;2023-06-26T07:19:11;95614.06;;;23.06;81.98
43878;BME280;29815;48.184;11.268;2023-06-26T07:21:42;95611.38;;;23.22;76.22
43878;BME280;29815;48.184;11.268;2023-06-26T07:24:12;95610.28;;;23.39;72.40
43878;BME280;29815;48.184;11.268;2023-06-26T07:26:42;95617.28;;;23.64;71.02
43878;BME280;29815;48.184;11.268;2023-06-26T07:29:15;95616.78;;;23.74;69.76
43878;BME280;29815;48.184;11.268;2023-06-26T07:31:44;95609.69;;;23.89;68.37
43878;BME280;29815;48.184;11.268;2023-06-26T07:34:14;95609.97;;;24.00;68.82
43878;BME280;29815;48.184;11.268;2023-06-26T07:36:45;95609.63;;;24.17;66.63
43878;BME280;29815;48.184;11.268;2023-06-26T07:39:14;95610.44;;;24.33;66.59
43878;BME280;29815;48.184;11.268;2023-06-26T07:41:50;95608.81;;;24.48;67.79
43878;BME280;29815;48.184;11.268;2023-06-26T07:44:21;95609.94;;;24.62;66.20
43878;BME280;29815;48.184;11.268;2023-06-26T07:46:51;95615.44;;;24.78;64.58
43878;BME280;29815;48.184;11.268;2023-06-26T07:49:20;95610.22;;;24.92;64.86
43878;BME280;29815;48.184;11.268;2023-06-26T07:51:52;95619.19;;;25.05;63.64
43878;BME280;29815;48.184;11.268;2023-06-26T07:54:21;95613.53;;;25.17;62.41
43878;BME280;29815;48.184;11.268;2023-06-26T07:56:56;95608.78;;;25.34;62.05
43878;BME280;29815;48.184;11.268;2023-06-26T07:59:28;95608.31;;;25.51;60.84
43878;BME280;29815;48.184;11.268;2023-06-26T08:01:58;95604.19;;;25.60;61.55
43878;BME280;29815;48.184;11.268;2023-06-26T08:04:29;95594.72;;;25.81;59.15
43878;BME280;29815;48.184;11.268;2023-06-26T08:07:02;95600.50;;;25.95;59.63
43878;BME280;29815;48.184;11.268;2023-06-26T08:09:33;95596.03;;;26.10;60.13
43878;BME280;29815;48.184;11.268;2023-06-26T08:12:03;95601.47;;;26.29;60.26
43878;BME280;29815;48.184;11.268;2023-06-26T08:14:34;95589.78;;;26.36;57.90
43878;BME280;29815;48.184;11.268;2023-06-26T08:17:04;95595.16;;;26.51;57.86
43878;BME280;29815;48.184;11.268;2023-06-26T08:19:34;95585.97;;;26.70;57.16
43878;BME280;29815;48.184;11.268;2023-06-26T08:22:05;95587.81;;;26.89;55.14
43878;BME280;29815;48.184;11.268;2023-06-26T08:24:34;95586.41;;;26.99;53.95
43878;BME280;29815;48.184;11.268;2023-06-26T08:27:05;95585.03;;;27.15;53.05
43878;BME280;29815;48.184;11.268;2023-06-26T08:29:36;95588.31;;;27.24;53.69
43878;BME280;29815;48.184;11.268;2023-06-26T08:32:06;95584.06;;;27.30;53.38
43878;BME280;29815;48.184;11.268;2023-06-26T08:34:35;95584.97;;;27.42;51.20
43878;BME280;29815;48.184;11.268;2023-06-26T08:37:06;95590.66;;;27.56;50.63
43878;BME280;29815;48.184;11.268;2023-06-26T08:39:37;95586.44;;;27.66;50.23
43878;BME280;29815;48.184;11.268;2023-06-26T08:42:07;95576.66;;;27.75;49.21
43878;BME280;29815;48.184;11.268;2023-06-26T08:44:36;95578.38;;;27.90;49.65
43878;BME280;29815;48.184;11.268;2023-06-26T08:47:24;95575.72;;;28.01;49.83
43878;BME280;29815;48.184;11.268;2023-06-26T08:50:04;95575.16;;;28.22;48.81
43878;BME280;29815;48.184;11.268;2023-06-26T08:52:43;95580.50;;;28.45;46.14
43878;BME280;29815;48.184;11.268;2023-06-26T08:55:22;95576.19;;;28.54;46.66
43878;BME280;29815;48.184;11.268;2023-06-26T08:57:53;95577.03;;;28.58;46.69
43878;BME280;29815;48.184;11.268;2023-06-26T09:00:23;95579.41;;;28.60;46.28
43878;BME280;29815;48.184;11.268;2023-06-26T09:02:53;95575.00;;;28.52;46.05
43878;BME280;29815;48.184;11.268;2023-06-26T09:05:23;95572.72;;;28.64;46.32
43878;BME280;29815;48.184;11.268;2023-06-26T09:07:54;95565.34;;;28.83;45.95
43878;BME280;29815;48.184;11.268;2023-06-26T09:10:26;95567.81;;;29.02;44.06
43878;BME280;29815;48.184;11.268;2023-06-26T09:12:56;95564.69;;;29.11;43.17
43878;BME280;29815;48.184;11.268;2023-06-26T09:15:26;95567.16;;;29.26;43.58
43878;BME280;29815;48.184;11.268;2023-06-26T09:17:57;95564.00;;;29.39;44.19
43878;BME280;29815;48.184;11.268;2023-06-26T09:20:28;95562.91;;;29.54;43.60
43878;BME280;29815;48.184;11.268;2023-06-26T09:23:00;95562.53;;;29.62;42.23
43878;BME280;29815;48.184;11.268;2023-06-26T09:25:30;95560.19;;;29.75;40.67
43878;BME280;29815;48.184;11.268;2023-06-26T09:28:00;95562.97;;;29.86;40.96
43878;BME280;29815;48.184;11.268;2023-06-26T09:30:32;95562.19;;;29.92;41.64
43878;BME280;29815;48.184;11.268;2023-06-26T09:33:14;95556.25;;;29.80;41.22
43878;BME280;29815;48.184;11.268;2023-06-26T09:35:45;95558.22;;;29.79;39.06
43878;BME280;29815;48.184;11.268;2023-06-26T09:38:16;95553.47;;;29.90;40.74
43878;BME280;29815;48.184;11.268;2023-06-26T09:40:46;95555.44;;;29.90;39.99
43878;BME280;29815;48.184;11.268;2023-06-26T09:43:16;95558.28;;;30.15;40.03
43878;BME280;29815;48.184;11.268;2023-06-26T09:45:47;95547.97;;;30.08;39.88
43878;BME280;29815;48.184;11.268;2023-06-26T09:48:16;95541.63;;;30.25;40.05
43878;BME280;29815;48.184;11.268;2023-06-26T09:50:46;95543.59;;;30.46;40.41
43878;BME280;29815;48.184;11.268;2023-06-26T09:53:38;95539.63;;;30.40;39.24
43878;BME280;29815;48.184;11.268;2023-06-26T09:56:10;95540.44;;;30.34;38.96
43878;BME280;29815;48.184;11.268;2023-06-26T09:58:45;95537.66;;;30.26;38.56
43878;BME280;29815;48.184;11.268;2023-06-26T10:01:14;95538.44;;;30.41;37.87
43878;BME280;29815;48.184;11.268;2023-06-26T10:03:44;95530.53;;;30.57;38.55
43878;BME280;29815;48.184;11.268;2023-06-26T10:06:15;95529.69;;;30.68;37.65
43878;BME280;29815;48.184;11.268;2023-06-26T10:08:50;95520.50;;;30.92;36.96
43878;BME280;29815;48.184;11.268;2023-06-26T10:11:22;95536.03;;;30.75;37.62
43878;BME280;29815;48.184;11.268;2023-06-26T10:13:55;95536.88;;;30.33;37.73
43878;BME280;29815;48.184;11.268;2023-06-26T10:16:44;95533.66;;;29.95;38.02
43878;BME280;29815;48.184;11.268;2023-06-26T10:19:18;95539.25;;;30.06;38.01
43878;BME280;29815;48.184;11.268;2023-06-26T10:21:54;95529.72;;;30.18;38.77
43878;BME280;29815;48.184;11.268;2023-06-26T10:24:28;95533.28;;;30.18;38.77
43878;BME280;29815;48.184;11.268;2023-06-26T10:27:03;95534.09;;;30.26;37.95
43878;BME280;29815;48.184;11.268;2023-06-26T10:29:48;95532.09;;;30.51;38.66
43878;BME280;29815;48.184;11.268;2023-06-26T10:32:21;95526.13;;;30.74;38.52
43878;BME280;29815;48.184;11.268;2023-06-26T10:34:53;95526.88;;;30.89;37.65
43878;BME280;29815;48.184;11.268;2023-06-26T10:37:42;95528.00;;;31.16;37.62
43878;BME280;29815;48.184;11.268;2023-06-26T10:40:22;95515.22;;;31.29;37.17
43878;BME280;29815;48.184;11.268;2023-06-26T10:43:06;95520.22;;;31.63;37.50
43878;BME280;29815;48.184;11.268;2023-06-26T10:45:43;95522.78;;;31.25;37.51
43878;BME280;29815;48.184;11.268;2023-06-26T10:48:15;95513.38;;;30.87;37.96
43878;BME280;29815;48.184;11.268;2023-06-26T10:50:47;95522.16;;;30.43;38.81
43878;BME280;29815;48.184;11.268;2023-06-26T10:53:23;95521.78;;;30.45;38.25
43878;BME280;29815;48.184;11.268;2023-06-26T10:55:59;95511.03;;;30.68;38.84
43878;BME280;29815;48.184;11.268;2023-06-26T10:58:41;95517.28;;;31.04;39.12
43878;BME280;29815;48.184;11.268;2023-06-26T11:01:21;95509.97;;;31.46;37.34
43878;BME280;29815;48.184;11.268;2023-06-26T11:04:05;95516.81;;;31.30;35.63
43878;BME280;29815;48.184;11.268;2023-06-26T11:06:37;95512.94;;;31.03;37.46
43878;BME280;29815;48.184;11.268;2023-06-26T11:09:10;95518.97;;;30.70;37.51
43878;BME280;29815;48.184;11.268;2023-06-26T11:11:58;95518.09;;;30.97;38.09
43878;BME280;29815;48.184;11.268;2023-06-26T11:14:32;95512.06;;;31.27;38.32
43878;BME280;29815;48.184;11.268;2023-06-26T11:17:04;95524.66;;;31.50;36.89
43878;BME280;29815;48.184;11.268;2023-06-26T11:19:35;95513.06;;;31.69;37.46
43878;BME280;29815;48.184;11.268;2023-06-26T11:22:05;95525.19;;;31.96;38.22
43878;BME280;29815;48.184;11.268;2023-06-26T11:24:36;95516.34;;;32.09;36.32
43878;BME280;29815;48.184;11.268;2023-06-26T11:27:07;95510.69;;;32.23;36.48
43878;BME280;29815;48.184;11.268;2023-06-26T11:29:37;95504.47;;;32.01;36.82
43878;BME280;29815;48.184;11.268;2023-06-26T11:32:07;95503.94;;;32.24;36.68
43878;BME280;29815;48.184;11.268;2023-06-26T11:34:36;95505.38;;;32.39;35.30
43878;BME280;29815;48.184;11.268;2023-06-26T11:37:07;95506.78;;;32.58;35.83
43878;BME280;29815;48.184;11.268;2023-06-26T11:39:37;95513.41;;;32.71;36.04
43878;BME280;29815;48.184;11.268;2023-06-26T11:42:08;95505.53;;;33.04;35.37
43878;BME280;29815;48.184;11.268;2023-06-26T11:44:41;95507.91;;;33.05;35.11
43878;BME280;29815;48.184;11.268;2023-06-26T11:47:15;95504.88;;;32.89;34.25
43878;BME280;29815;48.184;11.268;2023-06-26T11:49:47;95500.88;;;32.52;34.62
43878;BME280;29815;48.184;11.268;2023-06-26T11:52:18;95499.59;;;32.60;33.62
43878;BME280;29815;48.184;11.268;2023-06-26T11:54:48;95498.47;;;32.92;33.46
43878;BME280;29815;48.184;11.268;2023-06-26T11:57:19;95509.19;;;32.97;33.35
43878;BME280;29815;48.184;11.268;2023-06-26T11:59:50;95500.03;;;32.96;34.12
43878;BME280;29815;48.184;11.268;2023-06-26T12:02:21;95494.34;;;33.07;33.97
43878;BME280;29815;48.184;11.268;2023-06-26T12:04:51;95494.78;;;33.36;34.70
43878;BME280;29815;48.184;11.268;2023-06-26T12:07:21;95493.00;;;33.15;33.12
43878;BME280;29815;48.184;11.268;2023-06-26T12:09:51;95494.09;;;33.25;34.06
43878;BME280;29815;48.184;11.268;2023-06-26T12:12:23;95496.38;;;33.37;32.72
43878;BME280;29815;48.184;11.268;2023-06-26T12:14:53;95495.38;;;33.51;32.35
43878;BME280;29815;48.184;11.268;2023-06-26T12:17:23;95497.19;;;33.65;32.35
43878;BME280;29815;48.184;11.268;2023-06-26T12:19:54;95500.09;;;33.27;33.42
43878;BME280;29815;48.184;11.268;2023-06-26T12:22:23;95489.47;;;33.45;33.10
43878;BME280;29815;48.184;11.268;2023-06-26T12:24:57;95495.69;;;33.56;32.66
43878;BME280;29815;48.184;11.268;2023-06-26T12:27:29;95499.31;;;33.84;33.39
43878;BME280;29815;48.184;11.268;2023-06-26T12:29:58;95487.28;;;34.14;33.25
43878;BME280;29815;48.184;11.268;2023-06-26T12:32:28;95502.50;;;34.36;33.40
43878;BME280;29815;48.184;11.268;2023-06-26T12:34:58;95494.41;;;34.42;31.98
43878;BME280;29815;48.184;11.268;2023-06-26T12:37:28;95494.63;;;34.27;32.91
43878;BME280;29815;48.184;11.268;2023-06-26T12:39:58;95489.69;;;34.12;32.21
43878;BME280;29815;48.184;11.268;2023-06-26T12:42:33;95487.66;;;34.16;32.68
43878;BME280;29815;48.184;11.268;2023-06-26T12:45:11;95476.06;;;34.41;33.17
43878;BME280;29815;48.184;11.268;2023-06-26T12:48:08;95491.38;;;34.06;32.18
43878;BME280;29815;48.184;11.268;2023-06-26T12:50:43;95496.66;;;34.00;33.21
43878;BME280;29815;48.184;11.268;2023-06-26T12:53:14;95494.84;;;33.90;32.39
43878;BME280;29815;48.184;11.268;2023-06-26T12:55:44;95478.59;;;34.08;32.73
43878;BME280;29815;48.184;11.268;2023-06-26T12:58:15;95485.75;;;34.09;32.79
43878;BME280;29815;48.184;11.268;2023-06-26T13:00:45;95491.03;;;34.04;33.20
43878;BME280;29815;48.184;11.268;2023-06-26T13:03:15;95489.00;;;33.77;33.46
43878;BME280;29815;48.184;11.268;2023-06-26T13:05:45;95482.50;;;33.87;33.17
43878;BME280;29815;48.184;11.268;2023-06-26T13:08:14;95472.13;;;33.61;33.10